createdAt,value
2019-05-19T00:01:12.466Z,9.13
2019-05-19T00:03:43.282Z,9.68
2019-05-19T00:06:13.538Z,9.45
2019-05-19T00:08:44.038Z,9.65
2019-05-19T00:11:14.556Z,9.83
2019-05-19T00:13:44.817Z,10.13
2019-05-19T00:16:15.126Z,10.13
2019-05-19T00:18:45.636Z,9.88
2019-05-19T00:21:15.863Z,9.83
2019-05-19T00:23:46.267Z,10.58
2019-05-19T00:26:16.543Z,10.18
2019-05-19T00:28:46.856Z,10.53
2019-05-19T00:31:17.244Z,10.28
2019-05-19T00:33:47.501Z,10.32
2019-05-19T00:36:19.711Z,10.50
2019-05-19T00:38:49.899Z,10.18
2019-05-19T00:41:20.263Z,10.48
2019-05-19T00:43:50.829Z,11.28
2019-05-19T00:46:21.279Z,10.68
2019-05-19T00:48:51.607Z,10.58
2019-05-19T00:51:22.399Z,10.32
2019-05-19T00:53:52.747Z,10.32
2019-05-19T00:56:23.539Z,11.45
2019-05-19T00:58:57.684Z,11.80
2019-05-19T01:01:27.927Z,11.68
2019-05-19T01:03:58.181Z,11.65
2019-05-19T01:06:28.441Z,12.50
2019-05-19T01:08:58.892Z,12.23
2019-05-19T01:11:29.123Z,12.43
2019-05-19T01:14:01.379Z,13.48
2019-05-19T01:16:31.647Z,13.15
2019-05-19T01:19:01.985Z,13.50
2019-05-19T01:21:33.309Z,13.40
2019-05-19T01:24:03.587Z,13.22
2019-05-19T01:26:33.848Z,13.22
2019-05-19T01:29:04.100Z,14.07
2019-05-19T01:31:34.441Z,13.65
2019-05-19T01:34:04.708Z,13.60
2019-05-19T01:36:35.324Z,13.62
2019-05-19T01:39:06.597Z,13.60
2019-05-19T01:41:37.005Z,14.45
2019-05-19T01:44:07.280Z,14.45
2019-05-19T01:46:38.604Z,14.50
2019-05-19T01:49:08.844Z,14.60
2019-05-19T01:51:39.222Z,14.13
2019-05-19T01:54:09.465Z,15.85
2019-05-19T01:56:39.714Z,14.63
2019-05-19T01:59:10.002Z,14.40
2019-05-19T02:01:40.358Z,15.08
2019-05-19T02:04:10.606Z,14.70
2019-05-19T02:06:40.944Z,15.50
2019-05-19T02:09:11.580Z,15.35
2019-05-19T02:11:41.876Z,16.30
2019-05-19T02:14:12.206Z,15.15
2019-05-19T02:16:42.510Z,14.80
2019-05-19T02:19:13.074Z,15.23
2019-05-19T02:21:43.356Z,15.78
2019-05-19T02:24:13.604Z,15.85
2019-05-19T02:26:45.582Z,15.28
2019-05-19T02:29:15.874Z,15.32
2019-05-19T02:31:46.163Z,17.27
2019-05-19T02:34:16.472Z,16.10
2019-05-19T02:36:47.233Z,16.87
2019-05-19T02:39:17.481Z,16.05
2019-05-19T02:41:49.968Z,16.42
2019-05-19T02:44:21.338Z,15.95
2019-05-19T02:46:54.673Z,15.83
2019-05-19T02:49:27.346Z,15.70
2019-05-19T02:51:59.529Z,16.30
2019-05-19T02:54:32.257Z,16.87
2019-05-19T02:57:03.602Z,16.42
2019-05-19T02:59:35.354Z,16.97
2019-05-19T03:02:11.175Z,16.75
2019-05-19T03:04:41.661Z,15.95
2019-05-19T03:07:12.000Z,16.60
2019-05-19T03:09:44.355Z,15.72
2019-05-19T03:12:14.314Z,16.60
2019-05-19T03:14:45.963Z,15.25
2019-05-19T03:17:16.146Z,15.85
2019-05-19T03:19:46.596Z,15.75
2019-05-19T03:22:16.880Z,15.80
2019-05-19T03:24:47.222Z,16.40
2019-05-19T03:27:17.475Z,16.57
2019-05-19T03:29:52.678Z,16.48
2019-05-19T03:32:29.517Z,15.40
2019-05-19T03:34:59.663Z,17.17
2019-05-19T03:37:29.919Z,16.70
2019-05-19T03:40:01.797Z,16.50
2019-05-19T03:42:32.335Z,16.07
2019-05-19T03:45:02.596Z,16.77
2019-05-19T03:47:32.880Z,16.15
2019-05-19T03:50:03.175Z,17.07
2019-05-19T03:52:33.576Z,16.93
2019-05-19T03:55:03.826Z,16.67
2019-05-19T03:57:34.167Z,16.80
2019-05-19T04:00:04.953Z,16.73
2019-05-19T04:02:35.504Z,17.48
2019-05-19T04:05:06.592Z,17.10
2019-05-19T04:07:36.849Z,16.52
2019-05-19T04:10:07.618Z,15.60
2019-05-19T04:12:37.882Z,16.12
2019-05-19T04:15:08.391Z,16.30
2019-05-19T04:17:38.651Z,16.12
2019-05-19T04:20:09.643Z,16.85
2019-05-19T04:22:39.893Z,15.93
2019-05-19T04:25:10.285Z,16.75
2019-05-19T04:27:41.698Z,16.67
2019-05-19T04:30:12.868Z,16.80
2019-05-19T04:32:43.130Z,17.07
2019-05-19T04:35:13.931Z,16.82
2019-05-19T04:37:44.367Z,16.32
2019-05-19T04:40:14.956Z,16.32
2019-05-19T04:42:45.330Z,15.72
2019-05-19T04:45:15.647Z,16.60
2019-05-19T04:47:45.974Z,15.70
2019-05-19T04:50:16.428Z,15.75
2019-05-19T04:52:46.706Z,16.00
2019-05-19T04:55:17.006Z,15.53
2019-05-19T04:57:48.604Z,15.83
2019-05-19T05:00:19.159Z,15.70
2019-05-19T05:02:50.799Z,15.90
2019-05-19T05:05:21.031Z,16.40
2019-05-19T05:07:51.219Z,15.80
2019-05-19T05:10:22.530Z,15.43
2019-05-19T05:12:52.865Z,15.55
2019-05-19T05:15:23.080Z,15.85
2019-05-19T05:17:53.255Z,15.03
2019-05-19T05:20:23.492Z,14.83
2019-05-19T05:22:54.013Z,14.58
2019-05-19T05:25:24.263Z,14.50
2019-05-19T05:27:54.486Z,14.73
2019-05-19T05:30:24.958Z,14.23
2019-05-19T05:32:55.652Z,14.33
2019-05-19T05:35:25.914Z,14.60
2019-05-19T05:37:56.145Z,13.80
2019-05-19T05:40:26.288Z,14.00
2019-05-19T05:42:56.561Z,12.88
2019-05-19T05:45:26.831Z,12.75
2019-05-19T05:47:57.308Z,12.75
2019-05-19T05:50:28.240Z,12.88
2019-05-19T05:52:58.487Z,12.58
2019-05-19T05:55:28.758Z,12.60
2019-05-19T05:57:59.032Z,12.80
2019-05-19T06:00:29.326Z,11.65
2019-05-19T06:02:59.579Z,12.25
2019-05-19T06:05:29.872Z,11.75
2019-05-19T06:08:00.162Z,11.05
2019-05-19T06:10:30.404Z,11.22
2019-05-19T06:13:02.412Z,11.50
2019-05-19T06:15:32.608Z,10.68
2019-05-19T06:18:05.979Z,11.35
2019-05-19T06:20:36.349Z,11.05
2019-05-19T06:23:10.798Z,11.05
2019-05-19T06:25:41.049Z,10.82
2019-05-19T06:28:11.564Z,10.10
2019-05-19T06:30:45.460Z,10.58
2019-05-19T06:33:15.722Z,10.40
2019-05-19T06:35:46.091Z,10.55
2019-05-19T06:38:17.522Z,9.98
2019-05-19T06:40:47.786Z,9.93
2019-05-19T06:43:18.070Z,9.75
2019-05-19T06:45:48.302Z,9.73
2019-05-19T06:48:18.626Z,9.58
2019-05-19T06:50:49.260Z,9.63
2019-05-19T06:53:19.494Z,10.10
2019-05-19T06:55:49.667Z,9.58
2019-05-19T06:58:20.515Z,9.78
2019-05-19T07:00:50.734Z,9.93
2019-05-19T07:03:20.970Z,9.38
2019-05-19T07:05:51.518Z,9.28
2019-05-19T07:08:21.924Z,9.50
2019-05-19T07:10:52.558Z,8.90
2019-05-19T07:13:22.822Z,8.23
2019-05-19T07:15:53.620Z,8.55
2019-05-19T07:18:23.884Z,8.20
2019-05-19T07:20:54.199Z,8.88
2019-05-19T07:23:28.198Z,8.73
2019-05-19T07:25:57.430Z,8.23
2019-05-19T07:28:29.409Z,8.30
2019-05-19T07:30:59.720Z,7.60
2019-05-19T07:33:32.018Z,7.80
2019-05-19T07:36:02.286Z,7.65
2019-05-19T07:38:32.598Z,7.72
2019-05-19T07:41:03.203Z,7.70
2019-05-19T07:43:33.457Z,7.60
2019-05-19T07:46:03.744Z,7.75
2019-05-19T07:48:34.055Z,7.40
2019-05-19T07:51:04.736Z,7.35
2019-05-19T07:53:42.667Z,7.35
2019-05-19T07:56:07.085Z,6.75
2019-05-19T07:58:38.483Z,7.10
2019-05-19T08:01:08.801Z,6.75
2019-05-19T08:03:39.114Z,7.47
2019-05-19T08:06:09.330Z,7.37
2019-05-19T08:08:39.975Z,7.12
2019-05-19T08:11:10.311Z,7.28
2019-05-19T08:13:41.008Z,6.75
2019-05-19T08:16:11.541Z,7.12
2019-05-19T08:18:41.979Z,6.45
2019-05-19T08:21:12.235Z,6.60
2019-05-19T08:23:58.521Z,7.25
2019-05-19T08:26:14.707Z,6.78
2019-05-19T08:28:44.946Z,6.25
2019-05-19T08:31:15.660Z,6.58
2019-05-19T08:33:46.025Z,7.03
2019-05-19T08:36:16.783Z,6.75
2019-05-19T08:38:48.541Z,6.92
2019-05-19T08:41:22.575Z,6.50
2019-05-19T08:43:53.529Z,6.92
2019-05-19T08:46:24.127Z,7.33
2019-05-19T08:48:58.208Z,6.92
2019-05-19T08:51:28.270Z,7.10
2019-05-19T08:54:06.942Z,6.85
2019-05-19T08:56:30.930Z,6.78
2019-05-19T08:59:01.279Z,6.85
2019-05-19T09:01:31.556Z,6.80
2019-05-19T09:04:01.795Z,6.83
2019-05-19T09:06:32.047Z,6.45
2019-05-19T09:09:05.014Z,6.00
2019-05-19T09:11:35.358Z,6.80
2019-05-19T09:14:05.744Z,6.42
2019-05-19T09:16:36.043Z,6.25
2019-05-19T09:19:06.295Z,6.78
2019-05-19T09:21:39.401Z,5.97
2019-05-19T09:24:09.829Z,5.85
2019-05-19T09:26:40.214Z,6.22
2019-05-19T09:29:11.062Z,6.17
2019-05-19T09:31:41.588Z,5.80
2019-05-19T09:34:12.093Z,6.33
2019-05-19T09:36:42.799Z,5.42
2019-05-19T09:39:13.251Z,5.78
2019-05-19T09:41:43.587Z,6.25
2019-05-19T09:44:14.063Z,6.10
2019-05-19T09:46:45.571Z,6.17
2019-05-19T09:49:34.654Z,8.90
2019-05-19T09:52:06.738Z,6.67
2019-05-19T09:54:44.629Z,6.45
2019-05-19T09:57:09.307Z,6.67
2019-05-19T09:59:39.627Z,6.67
2019-05-19T10:02:09.802Z,6.58
2019-05-19T10:04:40.268Z,6.33
2019-05-19T10:07:10.985Z,6.17
2019-05-19T10:09:59.843Z,6.70
2019-05-19T10:12:31.218Z,5.90
2019-05-19T10:15:02.589Z,6.08
2019-05-19T10:17:34.588Z,6.30
2019-05-19T10:20:07.227Z,6.10
2019-05-19T10:22:37.644Z,6.17
2019-05-19T10:25:21.557Z,5.92
2019-05-19T10:27:41.670Z,5.72
2019-05-19T10:30:13.065Z,6.00
2019-05-19T10:32:43.340Z,6.12
2019-05-19T10:35:13.638Z,5.70
2019-05-19T10:37:44.508Z,5.55
2019-05-19T10:40:15.516Z,5.67
2019-05-19T10:42:46.151Z,5.78
2019-05-19T10:45:17.203Z,6.08
2019-05-19T10:47:47.869Z,6.12
2019-05-19T10:50:18.225Z,6.30
2019-05-19T10:52:48.927Z,6.42
2019-05-19T10:55:19.518Z,6.08
2019-05-19T10:57:50.840Z,5.60
2019-05-19T11:00:21.671Z,6.08
2019-05-19T11:02:52.245Z,5.90
2019-05-19T11:05:22.474Z,5.83
2019-05-19T11:07:52.841Z,5.80
2019-05-19T11:10:23.128Z,5.35
2019-05-19T11:12:53.378Z,5.47
2019-05-19T11:15:23.690Z,5.20
2019-05-19T11:17:54.140Z,5.55
2019-05-19T11:20:24.560Z,5.85
2019-05-19T11:22:56.325Z,5.83
2019-05-19T11:25:33.900Z,5.60
2019-05-19T11:27:58.560Z,5.70
2019-05-19T11:30:28.912Z,5.10
2019-05-19T11:32:59.174Z,5.78
2019-05-19T11:35:29.438Z,5.80
2019-05-19T11:37:59.716Z,5.90
2019-05-19T11:40:30.166Z,5.53
2019-05-19T11:43:00.447Z,6.00
2019-05-19T11:45:31.297Z,5.87
2019-05-19T11:48:01.543Z,6.17
2019-05-19T11:50:31.799Z,5.97
2019-05-19T11:53:02.072Z,5.50
2019-05-19T11:55:32.326Z,6.00
2019-05-19T11:58:02.701Z,5.40
2019-05-19T12:00:34.046Z,5.90
2019-05-19T12:03:07.077Z,6.25
2019-05-19T12:05:37.473Z,6.83
2019-05-19T12:08:08.143Z,6.72
2019-05-19T12:10:38.531Z,8.03
2019-05-19T12:13:08.821Z,8.00
2019-05-19T12:15:39.066Z,8.95
2019-05-19T12:18:09.306Z,10.93
2019-05-19T12:20:39.556Z,9.33
2019-05-19T12:23:09.898Z,9.28
2019-05-19T12:25:40.594Z,9.70
2019-05-19T12:28:11.171Z,8.30
2019-05-19T12:30:42.080Z,8.08
2019-05-19T12:33:12.493Z,7.75
2019-05-19T12:35:42.828Z,7.62
2019-05-19T12:38:13.083Z,7.70
2019-05-19T12:40:43.349Z,7.55
2019-05-19T12:43:13.627Z,8.60
2019-05-19T12:45:44.894Z,9.48
2019-05-19T12:48:15.138Z,11.15
2019-05-19T12:50:45.415Z,8.58
2019-05-19T12:53:15.804Z,9.78
2019-05-19T12:55:46.055Z,8.60
2019-05-19T12:58:16.313Z,8.35
2019-05-19T13:00:46.651Z,7.45
2019-05-19T13:03:18.770Z,7.72
2019-05-19T13:05:49.027Z,7.45
2019-05-19T13:08:19.587Z,6.70
2019-05-19T13:10:50.129Z,6.70
2019-05-19T13:13:20.998Z,6.67
2019-05-19T13:15:57.413Z,6.92
2019-05-19T13:18:28.193Z,6.90
2019-05-19T13:20:59.327Z,7.15
2019-05-19T13:23:29.855Z,7.00
2019-05-19T13:26:05.607Z,5.92
2019-05-19T13:28:41.373Z,5.80
2019-05-19T13:31:30.236Z,6.20
2019-05-19T13:34:00.903Z,6.15
2019-05-19T13:36:31.199Z,6.75
2019-05-19T13:39:05.578Z,6.35
2019-05-19T13:41:41.210Z,5.97
2019-05-19T13:44:11.523Z,6.40
2019-05-19T13:46:42.392Z,5.35
2019-05-19T13:49:13.765Z,5.70
2019-05-19T13:51:44.056Z,6.05
2019-05-19T13:54:15.719Z,6.25
2019-05-19T13:56:45.963Z,5.53
2019-05-19T13:59:16.256Z,5.60
2019-05-19T14:01:46.478Z,5.53
2019-05-19T14:04:16.760Z,5.65
2019-05-19T14:06:47.266Z,5.80
2019-05-19T14:09:17.597Z,5.87
2019-05-19T14:11:47.824Z,6.05
2019-05-19T14:14:18.331Z,6.17
2019-05-19T14:16:48.534Z,6.50
2019-05-19T14:19:18.948Z,6.78
2019-05-19T14:21:49.251Z,6.87
2019-05-19T14:24:19.982Z,6.67
2019-05-19T14:26:51.479Z,6.47
2019-05-19T14:29:21.798Z,6.65
2019-05-19T14:31:52.236Z,7.37
2019-05-19T14:34:22.525Z,7.45
2019-05-19T14:36:53.055Z,7.35
2019-05-19T14:39:23.317Z,7.55
2019-05-19T14:41:57.482Z,7.55
2019-05-19T14:44:28.682Z,8.00
2019-05-19T14:46:59.029Z,8.03
2019-05-19T14:49:45.731Z,8.45
2019-05-19T14:52:16.054Z,8.18
2019-05-19T14:54:46.978Z,7.78
2019-05-19T14:57:17.802Z,7.75
2019-05-19T14:59:48.219Z,7.03
2019-05-19T15:02:20.011Z,7.55
2019-05-19T15:04:51.702Z,7.53
2019-05-19T15:07:23.476Z,7.85
2019-05-19T15:09:54.262Z,7.95
2019-05-19T15:12:24.966Z,7.80
2019-05-19T15:14:56.904Z,7.78
2019-05-19T15:17:27.127Z,8.70
2019-05-19T15:19:57.494Z,9.20
2019-05-19T15:22:28.242Z,8.83
2019-05-19T15:24:58.949Z,8.90
2019-05-19T15:27:32.188Z,9.28
2019-05-19T15:30:12.512Z,9.60
2019-05-19T15:32:35.208Z,9.38
2019-05-19T15:35:07.109Z,8.80
2019-05-19T15:37:40.447Z,9.38
2019-05-19T15:40:11.267Z,9.40
2019-05-19T15:42:41.592Z,8.75
2019-05-19T15:45:12.250Z,7.55
2019-05-19T15:47:42.570Z,6.92
2019-05-19T15:50:13.301Z,6.90
2019-05-19T15:52:43.725Z,6.90
2019-05-19T15:55:14.259Z,6.70
2019-05-19T15:57:44.444Z,6.70
2019-05-19T16:00:16.170Z,6.60
2019-05-19T16:02:46.541Z,6.03
2019-05-19T16:05:16.920Z,6.12
2019-05-19T16:07:47.173Z,5.92
2019-05-19T16:10:17.455Z,5.83
2019-05-19T16:12:47.682Z,6.20
2019-05-19T16:15:18.258Z,5.78
2019-05-19T16:17:48.489Z,6.28
2019-05-19T16:20:18.893Z,6.22
2019-05-19T16:22:49.143Z,6.22
2019-05-19T16:25:19.489Z,7.12
2019-05-19T16:27:49.861Z,6.28
2019-05-19T16:30:20.695Z,6.35
2019-05-19T16:32:51.271Z,6.50
2019-05-19T16:35:21.680Z,6.40
2019-05-19T16:37:52.521Z,6.25
2019-05-19T16:40:22.824Z,6.58
2019-05-19T16:42:53.092Z,6.83
2019-05-19T16:45:23.437Z,7.28
2019-05-19T16:47:53.774Z,7.08
2019-05-19T16:50:24.031Z,6.83
2019-05-19T16:52:54.454Z,7.25
2019-05-19T16:55:29.751Z,7.03
2019-05-19T16:58:00.090Z,7.20
2019-05-19T17:00:30.684Z,7.87
2019-05-19T17:03:00.935Z,7.90
2019-05-19T17:05:31.358Z,6.83
2019-05-19T17:08:01.632Z,8.15
2019-05-19T17:10:32.199Z,7.80
2019-05-19T17:13:02.544Z,7.90
2019-05-19T17:15:33.216Z,7.83
2019-05-19T17:18:03.517Z,7.92
2019-05-19T17:20:34.855Z,8.20
2019-05-19T17:23:05.308Z,8.30
2019-05-19T17:25:35.593Z,7.67
2019-05-19T17:28:05.848Z,8.25
2019-05-19T17:30:36.542Z,8.25
2019-05-19T17:33:06.811Z,8.70
2019-05-19T17:35:37.484Z,8.38
2019-05-19T17:38:07.867Z,8.20
2019-05-19T17:40:38.440Z,9.13
2019-05-19T17:43:08.790Z,8.90
2019-05-19T17:45:39.046Z,10.10
2019-05-19T17:48:25.389Z,9.60
2019-05-19T17:50:42.370Z,9.88
2019-05-19T17:53:12.968Z,9.80
2019-05-19T17:55:45.391Z,9.90
2019-05-19T17:58:16.197Z,9.95
2019-05-19T18:00:46.503Z,9.73
2019-05-19T18:03:16.837Z,9.40
2019-05-19T18:05:47.257Z,9.65
2019-05-19T18:08:17.659Z,10.13
2019-05-19T18:10:48.153Z,10.50
2019-05-19T18:13:18.479Z,10.43
2019-05-19T18:15:48.959Z,10.70
2019-05-19T18:18:19.323Z,11.05
2019-05-19T18:20:49.632Z,11.30
2019-05-19T18:23:19.992Z,11.38
2019-05-19T18:25:50.654Z,12.07
2019-05-19T18:28:21.001Z,10.68
2019-05-19T18:30:51.399Z,12.53
2019-05-19T18:33:24.715Z,11.78
2019-05-19T18:35:55.054Z,12.45
2019-05-19T18:38:25.304Z,12.30
2019-05-19T18:40:55.660Z,12.80
2019-05-19T18:43:25.919Z,11.90
2019-05-19T18:45:56.332Z,13.83
2019-05-19T18:48:26.608Z,12.98
2019-05-19T18:50:57.792Z,12.93
2019-05-19T18:53:28.331Z,11.48
2019-05-19T18:55:59.990Z,11.83
2019-05-19T18:58:30.311Z,12.45
2019-05-19T19:01:00.587Z,12.23
2019-05-19T19:03:30.901Z,12.73
2019-05-19T19:06:01.336Z,12.98
2019-05-19T19:08:31.580Z,13.20
2019-05-19T19:11:02.451Z,12.40
2019-05-19T19:13:32.682Z,13.72
2019-05-19T19:16:03.150Z,13.62
2019-05-19T19:18:33.734Z,13.25
2019-05-19T19:21:03.920Z,13.95
2019-05-19T19:23:34.584Z,14.10
2019-05-19T19:26:05.061Z,14.70
2019-05-19T19:28:35.414Z,14.68
2019-05-19T19:31:05.718Z,14.87
2019-05-19T19:33:36.027Z,14.33
2019-05-19T19:36:06.520Z,15.60
2019-05-19T19:38:36.814Z,14.87
2019-05-19T19:41:07.082Z,15.80
2019-05-19T19:43:37.373Z,16.20
2019-05-19T19:46:07.686Z,15.48
2019-05-19T19:48:38.556Z,14.87
2019-05-19T19:51:08.832Z,16.07
2019-05-19T19:53:39.932Z,15.93
2019-05-19T19:56:11.308Z,15.30
2019-05-19T19:58:42.216Z,16.10
2019-05-19T20:01:12.568Z,16.17
2019-05-19T20:03:43.340Z,17.32
2019-05-19T20:06:13.642Z,17.90
2019-05-19T20:08:43.993Z,18.25
2019-05-19T20:11:14.359Z,17.52
2019-05-19T20:13:45.385Z,16.90
2019-05-19T20:16:15.916Z,16.20
2019-05-19T20:18:46.195Z,17.65
2019-05-19T20:21:16.682Z,16.87
2019-05-19T20:23:46.974Z,17.48
2019-05-19T20:26:17.251Z,17.27
2019-05-19T20:28:47.587Z,16.77
2019-05-19T20:31:17.893Z,17.35
2019-05-19T20:33:48.203Z,16.12
2019-05-19T20:36:18.527Z,16.42
2019-05-19T20:38:48.745Z,16.70
2019-05-19T20:41:19.072Z,15.78
2019-05-19T20:43:49.354Z,15.40
2019-05-19T20:46:19.831Z,16.02
2019-05-19T20:48:50.132Z,15.53
2019-05-19T20:51:20.411Z,15.00
2019-05-19T20:53:53.266Z,14.07
2019-05-19T20:56:22.637Z,14.40
2019-05-19T20:58:52.953Z,14.33
2019-05-19T21:01:24.233Z,13.50
2019-05-19T21:03:54.660Z,13.80
2019-05-19T21:06:24.994Z,14.33
2019-05-19T21:08:55.329Z,13.72
2019-05-19T21:11:25.637Z,15.15
2019-05-19T21:13:55.934Z,13.05
2019-05-19T21:16:26.321Z,13.40
2019-05-19T21:19:10.272Z,13.35
2019-05-19T21:21:40.583Z,12.75
2019-05-19T21:24:10.874Z,12.68
2019-05-19T21:26:41.124Z,12.28
2019-05-19T21:29:11.629Z,12.43
2019-05-19T21:31:43.284Z,12.68
2019-05-19T21:34:14.282Z,12.90
2019-05-19T21:36:44.561Z,12.20
2019-05-19T21:39:15.918Z,12.23
2019-05-19T21:41:46.098Z,11.40
2019-05-19T21:44:16.462Z,12.15
2019-05-19T21:46:46.666Z,12.05
2019-05-19T21:49:17.017Z,11.90
2019-05-19T21:51:47.298Z,11.22
2019-05-19T21:54:17.539Z,11.30
2019-05-19T21:56:48.234Z,12.15
2019-05-19T21:59:18.542Z,13.78
2019-05-19T22:01:49.232Z,13.95
2019-05-19T22:04:19.470Z,14.63
2019-05-19T22:06:55.690Z,14.63
2019-05-19T22:09:25.983Z,14.33
2019-05-19T22:11:56.312Z,12.85
2019-05-19T22:14:26.582Z,13.22
2019-05-19T22:16:57.258Z,12.25
2019-05-19T22:19:27.686Z,11.12
2019-05-19T22:21:58.528Z,11.75
2019-05-19T22:24:28.884Z,11.00
2019-05-19T22:26:59.358Z,11.12
2019-05-19T22:29:29.986Z,11.30
2019-05-19T22:32:00.384Z,10.43
2019-05-19T22:34:30.844Z,10.90
2019-05-19T22:37:01.535Z,11.53
2019-05-19T22:39:31.776Z,10.55
2019-05-19T22:42:02.233Z,10.85
2019-05-19T22:44:32.513Z,10.98
2019-05-19T22:47:02.883Z,10.28
2019-05-19T22:49:33.195Z,11.03
2019-05-19T22:52:03.447Z,11.28
2019-05-19T22:54:33.886Z,10.23
2019-05-19T22:57:04.193Z,10.85
2019-05-19T22:59:34.494Z,10.82
2019-05-19T23:02:04.854Z,11.22
2019-05-19T23:04:35.098Z,10.90
2019-05-19T23:07:05.342Z,10.75
2019-05-19T23:09:35.931Z,10.60
2019-05-19T23:12:06.220Z,11.08
2019-05-19T23:14:36.691Z,10.82
2019-05-19T23:17:07.042Z,10.10
2019-05-19T23:19:37.486Z,10.00
2019-05-19T23:22:08.104Z,10.32
2019-05-19T23:24:38.834Z,9.50
2019-05-19T23:27:09.117Z,10.55
2019-05-19T23:29:39.591Z,10.35
2019-05-19T23:32:09.996Z,10.45
2019-05-19T23:34:40.286Z,10.10
2019-05-19T23:37:13.609Z,10.32
2019-05-19T23:39:43.858Z,9.73
2019-05-19T23:42:14.193Z,10.08
2019-05-19T23:44:44.490Z,9.45
2019-05-19T23:47:14.736Z,9.98
2019-05-19T23:49:45.023Z,10.25
2019-05-19T23:52:15.373Z,10.20
2019-05-19T23:54:46.743Z,9.95
2019-05-19T23:57:17.036Z,10.38
2019-05-19T23:59:47.285Z,10.05
